createdAt,value
2023-04-18T00:00:51.871Z,16.85
2023-04-18T00:03:21.056Z,15.75
2023-04-18T00:05:48.330Z,15.77
2023-04-18T00:08:15.699Z,18.50
2023-04-18T00:10:42.824Z,19.95
2023-04-18T00:13:10.328Z,17.77
2023-04-18T00:15:37.551Z,19.48
2023-04-18T00:18:06.220Z,19.05
2023-04-18T00:20:33.523Z,19.80
2023-04-18T00:23:02.129Z,17.67
2023-04-18T00:25:29.166Z,17.65
2023-04-18T00:27:56.192Z,16.75
2023-04-18T00:30:23.296Z,16.27
2023-04-18T00:32:50.452Z,18.48
2023-04-18T00:35:20.096Z,20.17
2023-04-18T00:37:47.110Z,20.42
2023-04-18T00:40:14.335Z,15.93
2023-04-18T00:42:41.432Z,19.55
2023-04-18T00:45:08.999Z,17.88
2023-04-18T00:47:36.297Z,16.40
2023-04-18T00:50:03.872Z,19.25
2023-04-18T00:52:33.836Z,16.48
2023-04-18T00:55:00.979Z,17.17
2023-04-18T00:57:28.165Z,17.73
2023-04-18T00:59:56.025Z,16.58
2023-04-18T01:02:23.344Z,21.13
2023-04-18T01:04:50.467Z,21.48
2023-04-18T01:07:17.720Z,18.77
2023-04-18T01:09:45.033Z,19.30
2023-04-18T01:12:12.018Z,18.95
2023-04-18T01:14:43.060Z,19.27
2023-04-18T01:17:13.618Z,20.02
2023-04-18T01:19:41.050Z,19.70
2023-04-18T01:22:08.973Z,21.25
2023-04-18T01:24:36.091Z,18.75
2023-04-18T01:27:03.386Z,21.67
2023-04-18T01:29:30.525Z,18.55
2023-04-18T01:31:57.688Z,18.05
2023-04-18T01:34:24.796Z,17.13
2023-04-18T01:36:51.809Z,21.35
2023-04-18T01:39:18.870Z,17.38
2023-04-18T01:41:45.983Z,18.08
2023-04-18T01:44:13.321Z,20.30
2023-04-18T01:46:41.180Z,17.02
2023-04-18T01:49:08.941Z,18.33
2023-04-18T01:51:36.624Z,19.50
2023-04-18T01:54:03.669Z,20.02
2023-04-18T01:56:31.187Z,17.48
2023-04-18T01:58:58.212Z,18.40
2023-04-18T02:01:25.527Z,17.45
2023-04-18T02:03:53.005Z,16.48
2023-04-18T02:06:20.443Z,18.10
2023-04-18T02:08:47.434Z,17.00
2023-04-18T02:11:14.546Z,21.77
2023-04-18T02:13:41.884Z,15.35
2023-04-18T02:16:13.143Z,20.67
2023-04-18T02:18:43.961Z,19.00
2023-04-18T02:21:11.416Z,21.05
2023-04-18T02:23:38.446Z,19.15
2023-04-18T02:26:05.608Z,23.27
2023-04-18T02:28:33.029Z,17.45
2023-04-18T02:31:01.000Z,16.63
2023-04-18T02:33:28.097Z,18.60
2023-04-18T02:35:55.235Z,17.70
2023-04-18T02:38:22.277Z,16.58
2023-04-18T02:40:49.318Z,21.00
2023-04-18T02:43:16.360Z,16.40
2023-04-18T02:45:43.472Z,18.05
2023-04-18T02:48:10.609Z,19.02
2023-04-18T02:50:38.030Z,17.88
2023-04-18T02:53:05.181Z,21.33
2023-04-18T02:55:32.387Z,17.88
2023-04-18T02:57:59.457Z,16.65
2023-04-18T03:00:27.110Z,16.73
2023-04-18T03:02:54.213Z,24.33
2023-04-18T03:05:22.565Z,15.77
2023-04-18T03:07:49.844Z,19.67
2023-04-18T03:10:16.996Z,16.73
2023-04-18T03:12:45.016Z,21.70
2023-04-18T03:15:12.224Z,16.45
2023-04-18T03:17:40.072Z,17.27
2023-04-18T03:20:08.201Z,18.63
2023-04-18T03:22:35.326Z,17.35
2023-04-18T03:25:02.424Z,14.18
2023-04-18T03:27:29.522Z,15.73
2023-04-18T03:29:56.583Z,18.42
2023-04-18T03:32:23.678Z,14.52
2023-04-18T03:34:51.864Z,17.13
2023-04-18T03:37:18.871Z,19.63
2023-04-18T03:39:45.994Z,16.50
2023-04-18T03:42:12.980Z,15.68
2023-04-18T03:44:40.035Z,18.42
2023-04-18T03:47:07.083Z,16.20
2023-04-18T03:49:34.165Z,22.95
2023-04-18T03:52:01.154Z,20.88
2023-04-18T03:54:28.232Z,16.15
2023-04-18T03:56:55.934Z,23.35
2023-04-18T03:59:23.020Z,18.65
2023-04-18T04:01:50.109Z,17.67
2023-04-18T04:04:17.622Z,17.30
2023-04-18T04:06:45.132Z,20.67
2023-04-18T04:09:12.181Z,22.52
2023-04-18T04:11:39.893Z,18.67
2023-04-18T04:14:06.879Z,19.30
2023-04-18T04:16:34.004Z,22.38
2023-04-18T04:19:01.116Z,22.95
2023-04-18T04:21:28.568Z,20.48
2023-04-18T04:23:55.632Z,21.75
2023-04-18T04:26:23.396Z,18.33
2023-04-18T04:28:51.854Z,20.48
2023-04-18T04:31:19.023Z,23.42
2023-04-18T04:33:46.826Z,19.00
2023-04-18T04:36:18.863Z,20.73
2023-04-18T04:38:46.182Z,18.30
2023-04-18T04:41:13.258Z,19.05
2023-04-18T04:43:41.407Z,18.27
2023-04-18T04:46:08.890Z,22.15
2023-04-18T04:48:36.045Z,19.23
2023-04-18T04:51:03.179Z,22.40
2023-04-18T04:53:33.298Z,21.17
2023-04-18T04:56:00.448Z,21.40
2023-04-18T04:58:27.869Z,18.90
2023-04-18T05:00:55.016Z,18.20
2023-04-18T05:03:22.551Z,17.10
2023-04-18T05:05:49.743Z,19.10
2023-04-18T05:08:16.969Z,18.15
2023-04-18T05:10:44.499Z,18.65
2023-04-18T05:13:11.904Z,17.88
2023-04-18T05:15:40.249Z,18.27
2023-04-18T05:18:07.497Z,18.73
2023-04-18T05:20:34.745Z,22.20
2023-04-18T05:23:02.011Z,15.32
2023-04-18T05:25:29.985Z,16.80
2023-04-18T05:27:57.342Z,17.90
2023-04-18T05:30:24.518Z,18.27
2023-04-18T05:32:51.616Z,16.67
2023-04-18T05:35:19.024Z,17.30
2023-04-18T05:37:46.201Z,18.90
2023-04-18T05:40:14.169Z,18.52
2023-04-18T05:42:41.282Z,16.63
2023-04-18T05:45:08.936Z,17.67
2023-04-18T05:47:36.160Z,18.63
2023-04-18T05:50:03.460Z,16.58
2023-04-18T05:52:30.590Z,17.95
2023-04-18T05:54:57.635Z,18.08
2023-04-18T05:57:24.775Z,16.50
2023-04-18T05:59:51.871Z,18.58
2023-04-18T06:02:18.968Z,16.50
2023-04-18T06:04:46.275Z,15.38
2023-04-18T06:07:13.431Z,16.33
2023-04-18T06:09:40.592Z,16.52
2023-04-18T06:12:07.731Z,16.05
2023-04-18T06:14:34.748Z,15.60
2023-04-18T06:17:01.875Z,17.65
2023-04-18T06:19:28.927Z,17.63
2023-04-18T06:21:55.984Z,14.02
2023-04-18T06:24:23.939Z,14.85
2023-04-18T06:26:51.189Z,14.43
2023-04-18T06:29:18.404Z,14.23
2023-04-18T06:31:47.343Z,14.98
2023-04-18T06:34:14.719Z,18.15
2023-04-18T06:36:41.945Z,16.77
2023-04-18T06:39:09.276Z,19.52
2023-04-18T06:41:36.289Z,14.98
2023-04-18T06:44:04.446Z,13.15
2023-04-18T06:46:32.682Z,13.32
2023-04-18T06:48:59.920Z,18.63
2023-04-18T06:51:27.723Z,14.70
2023-04-18T06:53:55.583Z,15.57
2023-04-18T06:56:23.275Z,16.05
2023-04-18T06:58:52.976Z,13.45
2023-04-18T07:01:20.270Z,11.05
2023-04-18T07:03:47.627Z,16.45
2023-04-18T07:06:16.144Z,14.13
2023-04-18T07:08:43.170Z,14.57
2023-04-18T07:11:11.708Z,14.40
2023-04-18T07:13:38.950Z,17.45
2023-04-18T07:16:06.545Z,12.85
2023-04-18T07:18:37.989Z,12.35
2023-04-18T07:21:09.200Z,11.38
2023-04-18T07:23:36.527Z,14.23
2023-04-18T07:26:05.444Z,14.80
2023-04-18T07:28:33.274Z,11.85
2023-04-18T07:31:01.376Z,11.88
2023-04-18T07:33:31.840Z,11.70
2023-04-18T07:35:59.037Z,15.07
2023-04-18T07:38:27.072Z,11.60
2023-04-18T07:40:58.710Z,12.70
2023-04-18T07:43:25.924Z,12.85
2023-04-18T07:45:53.985Z,11.05
2023-04-18T07:48:25.507Z,13.60
2023-04-18T07:50:52.797Z,11.15
2023-04-18T07:53:20.167Z,12.98
2023-04-18T07:55:47.242Z,11.30
2023-04-18T07:58:14.306Z,11.05
2023-04-18T08:00:42.923Z,11.73
2023-04-18T08:03:13.601Z,10.82
2023-04-18T08:05:42.981Z,11.48
2023-04-18T08:08:12.024Z,9.55
2023-04-18T08:10:39.435Z,11.05
2023-04-18T08:13:08.266Z,9.73
2023-04-18T08:15:35.683Z,12.32
2023-04-18T08:18:02.794Z,11.10
2023-04-18T08:20:29.883Z,11.68
2023-04-18T08:23:06.849Z,11.25
2023-04-18T08:25:36.624Z,12.50
2023-04-18T08:28:04.269Z,11.38
2023-04-18T08:30:31.680Z,9.13
2023-04-18T08:33:00.444Z,13.43
2023-04-18T08:35:27.723Z,9.63
2023-04-18T08:37:54.994Z,11.15
2023-04-18T08:40:22.293Z,10.68
2023-04-18T08:42:51.852Z,9.60
2023-04-18T08:45:20.236Z,11.20
2023-04-18T08:47:47.563Z,11.38
2023-04-18T08:50:14.659Z,10.27
2023-04-18T08:52:48.273Z,11.95
2023-04-18T08:55:16.323Z,10.30
2023-04-18T08:57:43.701Z,10.68
2023-04-18T09:00:12.112Z,13.35
2023-04-18T09:02:44.972Z,10.23
2023-04-18T09:05:14.328Z,10.05
2023-04-18T09:07:42.252Z,11.05
2023-04-18T09:10:10.233Z,10.40
2023-04-18T09:12:50.329Z,9.98
2023-04-18T09:15:20.548Z,7.80
2023-04-18T09:17:56.451Z,9.68
2023-04-18T09:20:41.327Z,10.10
2023-04-18T09:23:11.021Z,9.05
2023-04-18T09:25:47.028Z,8.95
2023-04-18T09:28:28.971Z,7.22
2023-04-18T09:30:58.430Z,7.72
2023-04-18T09:33:33.079Z,8.80
2023-04-18T09:36:20.278Z,7.85
2023-04-18T09:38:56.314Z,9.57
2023-04-18T09:41:24.544Z,11.05
2023-04-18T09:44:14.015Z,9.20
2023-04-18T09:46:44.477Z,8.80
2023-04-18T09:49:13.577Z,9.35
2023-04-18T09:51:42.322Z,8.15
2023-04-18T09:54:12.292Z,8.85
2023-04-18T09:56:43.983Z,10.45
2023-04-18T09:59:12.482Z,10.35
2023-04-18T10:01:43.224Z,9.85
2023-04-18T10:04:12.385Z,8.52
2023-04-18T10:06:42.230Z,10.15
2023-04-18T10:09:10.401Z,10.35
2023-04-18T10:11:38.126Z,10.95
2023-04-18T10:14:09.872Z,9.73
2023-04-18T10:16:38.125Z,9.38
2023-04-18T10:19:26.151Z,9.82
2023-04-18T10:21:57.652Z,10.30
2023-04-18T10:24:50.291Z,8.48
2023-04-18T10:27:18.448Z,8.60
2023-04-18T10:29:50.164Z,9.02
2023-04-18T10:32:23.131Z,11.57
2023-04-18T10:34:53.578Z,8.13
2023-04-18T10:37:20.811Z,8.23
2023-04-18T10:40:03.030Z,7.40
2023-04-18T10:42:48.168Z,9.60
2023-04-18T10:45:21.640Z,9.70
2023-04-18T10:47:49.586Z,11.00
2023-04-18T10:50:17.566Z,10.15
2023-04-18T10:52:44.992Z,9.60
2023-04-18T10:55:19.396Z,9.88
2023-04-18T10:57:48.766Z,11.40
2023-04-18T11:00:18.856Z,13.45
2023-04-18T11:02:50.744Z,10.10
2023-04-18T11:05:26.897Z,8.85
2023-04-18T11:07:54.426Z,10.32
2023-04-18T11:10:27.258Z,9.40
2023-04-18T11:12:55.291Z,9.07
2023-04-18T11:15:24.767Z,11.50
2023-04-18T11:17:58.749Z,8.60
2023-04-18T11:20:26.030Z,10.43
2023-04-18T11:22:55.149Z,9.68
2023-04-18T11:25:44.932Z,8.02
2023-04-18T11:28:16.905Z,11.95
2023-04-18T11:30:44.000Z,10.13
2023-04-18T11:33:12.606Z,9.13
2023-04-18T11:35:40.698Z,9.50
2023-04-18T11:38:08.946Z,11.30
2023-04-18T11:40:37.290Z,9.77
2023-04-18T11:43:07.478Z,9.60
2023-04-18T11:45:34.946Z,8.75
2023-04-18T11:48:02.503Z,8.43
2023-04-18T11:50:35.598Z,11.57
2023-04-18T11:53:03.520Z,9.18
2023-04-18T11:55:30.710Z,9.90
2023-04-18T11:57:58.701Z,8.55
2023-04-18T12:00:36.103Z,10.40
2023-04-18T12:03:11.890Z,8.20
2023-04-18T12:05:41.208Z,7.53
2023-04-18T12:08:19.608Z,10.95
2023-04-18T12:10:51.196Z,9.95
2023-04-18T12:13:18.769Z,8.13
2023-04-18T12:15:46.877Z,10.73
2023-04-18T12:18:19.567Z,9.30
2023-04-18T12:20:51.687Z,9.80
2023-04-18T12:23:40.575Z,10.32
2023-04-18T12:26:18.376Z,9.82
2023-04-18T12:28:51.325Z,8.57
2023-04-18T12:31:18.450Z,8.02
2023-04-18T12:33:45.510Z,7.80
2023-04-18T12:36:12.658Z,8.18
2023-04-18T12:38:39.718Z,9.48
2023-04-18T12:41:06.882Z,10.65
2023-04-18T12:43:33.868Z,9.63
2023-04-18T12:46:01.368Z,10.20
2023-04-18T12:48:28.949Z,8.75
2023-04-18T12:50:56.345Z,8.98
2023-04-18T12:53:23.385Z,9.60
2023-04-18T12:55:50.504Z,10.07
2023-04-18T12:58:18.889Z,9.10
2023-04-18T13:00:46.357Z,10.77
2023-04-18T13:03:13.791Z,10.60
2023-04-18T13:05:41.265Z,8.70
2023-04-18T13:08:17.162Z,11.85
2023-04-18T13:10:48.211Z,11.57
2023-04-18T13:13:15.349Z,9.75
2023-04-18T13:15:42.683Z,8.93
2023-04-18T13:18:09.855Z,10.48
2023-04-18T13:20:37.294Z,10.10
2023-04-18T13:23:04.613Z,8.45
2023-04-18T13:25:31.859Z,11.85
2023-04-18T13:28:00.926Z,8.15
2023-04-18T13:30:28.278Z,9.20
2023-04-18T13:32:55.466Z,10.70
2023-04-18T13:35:22.591Z,11.68
2023-04-18T13:37:49.764Z,11.02
2023-04-18T13:40:16.855Z,10.18
2023-04-18T13:42:43.920Z,9.82
2023-04-18T13:45:11.323Z,9.70
2023-04-18T13:47:38.482Z,11.10
2023-04-18T13:50:06.093Z,11.40
2023-04-18T13:52:33.449Z,9.18
2023-04-18T13:55:01.110Z,11.80
2023-04-18T13:57:28.553Z,8.32
2023-04-18T13:59:55.770Z,10.82
2023-04-18T14:02:23.328Z,11.02
2023-04-18T14:04:52.192Z,10.13
2023-04-18T14:07:19.352Z,12.00
2023-04-18T14:09:48.282Z,10.43
2023-04-18T14:12:15.461Z,11.75
2023-04-18T14:14:42.554Z,13.70
2023-04-18T14:17:09.590Z,9.75
2023-04-18T14:19:36.635Z,10.90
2023-04-18T14:22:03.682Z,11.70
2023-04-18T14:24:30.834Z,10.93
2023-04-18T14:26:58.541Z,11.32
2023-04-18T14:29:25.659Z,15.45
2023-04-18T14:31:52.738Z,10.60
2023-04-18T14:34:19.777Z,10.77
2023-04-18T14:36:47.003Z,11.77
2023-04-18T14:39:14.316Z,10.90
2023-04-18T14:41:41.788Z,13.65
2023-04-18T14:44:08.902Z,11.68
2023-04-18T14:46:36.087Z,12.95
2023-04-18T14:49:03.193Z,9.40
2023-04-18T14:51:30.229Z,9.82
2023-04-18T14:53:57.298Z,10.93
2023-04-18T14:56:24.441Z,10.65
2023-04-18T14:58:51.569Z,10.02
2023-04-18T15:01:18.848Z,11.50
2023-04-18T15:03:46.376Z,10.15
2023-04-18T15:06:13.621Z,9.20
2023-04-18T15:08:40.831Z,10.00
2023-04-18T15:11:08.343Z,11.30
2023-04-18T15:13:35.739Z,10.10
2023-04-18T15:16:03.196Z,10.63
2023-04-18T15:18:30.355Z,8.57
2023-04-18T15:21:01.127Z,11.32
2023-04-18T15:23:28.244Z,9.68
2023-04-18T15:25:55.485Z,10.00
2023-04-18T15:28:23.102Z,9.52
2023-04-18T15:30:50.178Z,12.50
2023-04-18T15:33:19.214Z,11.05
2023-04-18T15:35:50.023Z,10.80
2023-04-18T15:38:17.166Z,8.95
2023-04-18T15:40:44.780Z,10.60
2023-04-18T15:43:13.854Z,10.13
2023-04-18T15:45:40.990Z,9.82
2023-04-18T15:48:08.091Z,9.35
2023-04-18T15:50:35.723Z,9.82
2023-04-18T15:53:02.922Z,10.85
2023-04-18T15:55:30.374Z,9.65
2023-04-18T15:57:57.399Z,9.00
2023-04-18T16:00:24.506Z,9.75
2023-04-18T16:02:52.054Z,10.48
2023-04-18T16:05:19.602Z,8.40
2023-04-18T16:07:46.674Z,8.25
2023-04-18T16:10:15.384Z,7.53
2023-04-18T16:12:42.576Z,9.15
2023-04-18T16:15:10.653Z,7.22
2023-04-18T16:17:38.662Z,8.00
2023-04-18T16:20:08.468Z,7.90
2023-04-18T16:22:37.864Z,6.60
2023-04-18T16:25:05.550Z,7.15
2023-04-18T16:27:33.285Z,8.45
2023-04-18T16:30:00.485Z,6.95
2023-04-18T16:32:27.616Z,10.65
2023-04-18T16:34:54.839Z,6.78
2023-04-18T16:37:21.985Z,7.93
2023-04-18T16:39:48.988Z,6.38
2023-04-18T16:42:16.610Z,7.32
2023-04-18T16:44:45.364Z,6.28
2023-04-18T16:47:13.049Z,8.25
2023-04-18T16:49:40.799Z,7.18
2023-04-18T16:52:07.785Z,9.75
2023-04-18T16:54:34.892Z,9.98
2023-04-18T16:57:02.990Z,5.90
2023-04-18T16:59:30.040Z,8.00
2023-04-18T17:01:57.210Z,7.45
2023-04-18T17:04:27.010Z,6.85
2023-04-18T17:06:54.190Z,10.00
2023-04-18T17:09:21.532Z,8.25
2023-04-18T17:11:48.734Z,9.27
2023-04-18T17:14:17.622Z,6.97
2023-04-18T17:16:44.906Z,9.63
2023-04-18T17:19:12.144Z,8.73
2023-04-18T17:21:39.297Z,6.40
2023-04-18T17:24:07.189Z,8.18
2023-04-18T17:26:35.599Z,6.85
2023-04-18T17:29:06.505Z,8.05
2023-04-18T17:31:34.369Z,7.88
2023-04-18T17:34:01.733Z,6.85
2023-04-18T17:36:28.873Z,6.60
2023-04-18T17:38:56.976Z,6.53
2023-04-18T17:41:24.103Z,6.30
2023-04-18T17:43:51.317Z,9.52
2023-04-18T17:46:18.487Z,7.70
2023-04-18T17:48:45.848Z,8.98
2023-04-18T17:51:13.054Z,6.82
2023-04-18T17:53:40.156Z,11.63
2023-04-18T17:56:07.301Z,7.75
2023-04-18T17:58:34.348Z,9.50
2023-04-18T18:01:01.516Z,7.45
2023-04-18T18:03:28.665Z,7.63
2023-04-18T18:05:55.855Z,8.93
2023-04-18T18:08:23.474Z,6.95
2023-04-18T18:10:50.854Z,10.82
2023-04-18T18:13:17.896Z,7.45
2023-04-18T18:15:44.901Z,10.77
2023-04-18T18:18:12.140Z,7.18
2023-04-18T18:20:43.301Z,8.57
2023-04-18T18:23:10.432Z,8.70
2023-04-18T18:25:37.942Z,7.45
2023-04-18T18:28:05.121Z,7.05
2023-04-18T18:30:32.762Z,8.98
2023-04-18T18:33:01.797Z,6.80
2023-04-18T18:35:28.922Z,7.45
2023-04-18T18:37:56.241Z,8.25
2023-04-18T18:40:25.895Z,7.53
2023-04-18T18:42:54.844Z,8.88
2023-04-18T18:45:21.997Z,8.95
2023-04-18T18:47:49.255Z,7.28
2023-04-18T18:50:16.475Z,8.88
2023-04-18T18:52:43.814Z,9.00
2023-04-18T18:55:12.023Z,10.90
2023-04-18T18:57:39.112Z,6.85
2023-04-18T19:00:10.931Z,10.70
2023-04-18T19:02:39.968Z,8.18
2023-04-18T19:05:07.625Z,7.40
2023-04-18T19:07:37.823Z,8.98
2023-04-18T19:10:06.114Z,8.00
2023-04-18T19:12:33.148Z,8.68
2023-04-18T19:15:01.491Z,7.57
2023-04-18T19:17:31.618Z,7.93
2023-04-18T19:20:12.424Z,8.30
2023-04-18T19:22:39.823Z,6.88
2023-04-18T19:25:09.912Z,8.98
2023-04-18T19:27:39.593Z,8.02
2023-04-18T19:30:15.203Z,8.38
2023-04-18T19:32:42.568Z,8.00
2023-04-18T19:35:27.548Z,7.78
2023-04-18T19:38:05.037Z,8.38
2023-04-18T19:40:38.207Z,9.30
2023-04-18T19:43:14.742Z,7.95
2023-04-18T19:45:42.230Z,8.25
2023-04-18T19:48:17.713Z,8.93
2023-04-18T19:50:45.179Z,8.23
2023-04-18T19:53:12.507Z,7.95
2023-04-18T19:55:47.638Z,7.53
2023-04-18T19:58:37.730Z,8.88
2023-04-18T20:01:13.590Z,7.97
2023-04-18T20:03:44.148Z,7.88
2023-04-18T20:06:12.003Z,7.53
2023-04-18T20:08:43.636Z,8.88
2023-04-18T20:11:14.596Z,9.40
2023-04-18T20:13:42.173Z,11.18
2023-04-18T20:16:12.469Z,7.97
2023-04-18T20:18:41.945Z,12.23
2023-04-18T20:21:11.277Z,8.43
2023-04-18T20:23:39.652Z,9.13
2023-04-18T20:26:08.356Z,9.48
2023-04-18T20:28:36.658Z,9.05
2023-04-18T20:31:04.124Z,10.00
2023-04-18T20:33:31.363Z,11.30
2023-04-18T20:35:59.097Z,11.07
2023-04-18T20:38:29.787Z,10.18
2023-04-18T20:40:59.027Z,9.70
2023-04-18T20:43:27.568Z,9.40
2023-04-18T20:45:54.749Z,11.10
2023-04-18T20:48:21.909Z,13.63
2023-04-18T20:50:51.830Z,11.60
2023-04-18T20:53:22.603Z,8.98
2023-04-18T20:55:49.767Z,11.35
2023-04-18T20:58:16.963Z,9.75
2023-04-18T21:00:45.017Z,9.68
2023-04-18T21:03:16.046Z,8.63
2023-04-18T21:05:44.461Z,10.00
2023-04-18T21:08:11.617Z,10.23
2023-04-18T21:10:39.201Z,9.65
2023-04-18T21:13:06.239Z,10.57
2023-04-18T21:15:34.563Z,12.13
2023-04-18T21:18:01.725Z,9.80
2023-04-18T21:20:28.961Z,10.95
2023-04-18T21:22:56.297Z,11.23
2023-04-18T21:25:23.341Z,10.27
2023-04-18T21:27:50.971Z,9.15
2023-04-18T21:30:18.167Z,9.10
2023-04-18T21:32:47.226Z,11.30
2023-04-18T21:35:16.076Z,12.30
2023-04-18T21:37:44.352Z,10.50
2023-04-18T21:40:11.663Z,11.18
2023-04-18T21:42:38.727Z,11.52
2023-04-18T21:45:06.454Z,13.02
2023-04-18T21:47:33.515Z,11.48
2023-04-18T21:50:00.630Z,9.57
2023-04-18T21:52:27.664Z,11.35
2023-04-18T21:54:54.795Z,11.73
2023-04-18T21:57:22.091Z,9.52
2023-04-18T21:59:49.112Z,10.65
2023-04-18T22:02:16.308Z,9.30
2023-04-18T22:04:44.307Z,10.18
2023-04-18T22:07:12.656Z,11.30
2023-04-18T22:09:40.004Z,10.30
2023-04-18T22:12:07.870Z,11.25
2023-04-18T22:14:35.278Z,11.65
2023-04-18T22:17:04.936Z,12.05
2023-04-18T22:19:32.183Z,11.32
2023-04-18T22:21:59.275Z,12.32
2023-04-18T22:24:26.302Z,10.57
2023-04-18T22:26:53.897Z,10.05
2023-04-18T22:29:21.076Z,10.00
2023-04-18T22:31:48.144Z,11.50
2023-04-18T22:34:15.529Z,10.65
2023-04-18T22:36:43.968Z,11.60
2023-04-18T22:39:12.289Z,10.85
2023-04-18T22:41:39.317Z,14.88
2023-04-18T22:44:06.389Z,12.38
2023-04-18T22:46:33.449Z,11.50
2023-04-18T22:49:00.768Z,11.98
2023-04-18T22:51:29.008Z,11.55
2023-04-18T22:53:56.619Z,9.40
2023-04-18T22:56:23.729Z,9.60
2023-04-18T22:58:51.111Z,8.85
2023-04-18T23:01:18.742Z,11.65
2023-04-18T23:03:46.064Z,11.60
2023-04-18T23:06:13.257Z,10.35
2023-04-18T23:08:40.251Z,10.38
2023-04-18T23:11:07.279Z,11.30
2023-04-18T23:13:34.308Z,8.90
2023-04-18T23:16:01.504Z,10.07
2023-04-18T23:18:31.387Z,9.38
2023-04-18T23:21:00.230Z,10.10
2023-04-18T23:23:27.331Z,10.13
2023-04-18T23:25:54.342Z,9.93
2023-04-18T23:28:21.513Z,11.63
2023-04-18T23:30:50.327Z,10.85
2023-04-18T23:33:17.386Z,11.40
2023-04-18T23:35:44.411Z,9.25
2023-04-18T23:38:11.549Z,9.15
2023-04-18T23:40:38.697Z,12.45
2023-04-18T23:43:06.071Z,10.48
2023-04-18T23:45:33.106Z,10.65
2023-04-18T23:48:00.216Z,14.07
2023-04-18T23:50:27.345Z,11.85
2023-04-18T23:52:54.373Z,10.75
2023-04-18T23:55:21.462Z,10.85
2023-04-18T23:57:48.659Z,11.43
